sensor_id;sensor_type;location;lat;lon;timestamp;P1;durP1;ratioP1;P2;durP2;ratioP2
9563;SDS011;4820;50.870;4.702;2023-08-12T00:00:49;11.45;;;5.80;;
9563;SDS011;4820;50.870;4.702;2023-08-12T00:03:15;7.90;;;5.60;;
9563;SDS011;4820;50.870;4.702;2023-08-12T00:05:42;7.75;;;5.28;;
9563;SDS011;4820;50.870;4.702;2023-08-12T00:08:08;6.18;;;5.13;;
9563;SDS011;4820;50.870;4.702;2023-08-12T00:10:34;9.18;;;5.40;;
9563;SDS011;4820;50.870;4.702;2023-08-12T00:13:00;6.70;;;4.78;;
9563;SDS011;4820;50.870;4.702;2023-08-12T00:15:26;6.55;;;4.80;;
9563;SDS011;4820;50.870;4.702;2023-08-12T00:17:52;7.43;;;5.22;;
9563;SDS011;4820;50.870;4.702;2023-08-12T00:20:17;8.75;;;5.22;;
9563;SDS011;4820;50.870;4.702;2023-08-12T00:22:43;6.72;;;4.82;;
9563;SDS011;4820;50.870;4.702;2023-08-12T00:25:09;7.00;;;5.30;;
9563;SDS011;4820;50.870;4.702;2023-08-12T00:27:35;9.35;;;5.63;;
9563;SDS011;4820;50.870;4.702;2023-08-12T00:30:02;8.73;;;5.45;;
9563;SDS011;4820;50.870;4.702;2023-08-12T00:32:29;8.02;;;5.05;;
9563;SDS011;4820;50.870;4.702;2023-08-12T00:34:55;7.72;;;5.00;;
9563;SDS011;4820;50.870;4.702;2023-08-12T00:37:21;5.35;;;4.85;;
9563;SDS011;4820;50.870;4.702;2023-08-12T00:39:48;7.93;;;5.28;;
9563;SDS011;4820;50.870;4.702;2023-08-12T00:42:13;5.85;;;5.22;;
9563;SDS011;4820;50.870;4.702;2023-08-12T00:44:39;7.20;;;4.88;;
9563;SDS011;4820;50.870;4.702;2023-08-12T00:47:05;7.72;;;4.82;;
9563;SDS011;4820;50.870;4.702;2023-08-12T00:49:32;4.70;;;4.18;;
9563;SDS011;4820;50.870;4.702;2023-08-12T00:51:58;7.90;;;4.53;;
9563;SDS011;4820;50.870;4.702;2023-08-12T00:54:25;7.65;;;4.95;;
9563;SDS011;4820;50.870;4.702;2023-08-12T00:56:52;7.75;;;4.60;;
9563;SDS011;4820;50.870;4.702;2023-08-12T00:59:19;5.90;;;4.63;;
9563;SDS011;4820;50.870;4.702;2023-08-12T01:01:46;5.93;;;4.35;;
9563;SDS011;4820;50.870;4.702;2023-08-12T01:04:12;6.82;;;4.15;;
9563;SDS011;4820;50.870;4.702;2023-08-12T01:06:38;6.70;;;4.45;;
9563;SDS011;4820;50.870;4.702;2023-08-12T01:09:05;6.68;;;4.63;;
9563;SDS011;4820;50.870;4.702;2023-08-12T01:11:52;6.50;;;4.50;;
9563;SDS011;4820;50.870;4.702;2023-08-12T01:17:16;8.20;;;4.57;;
9563;SDS011;4820;50.870;4.702;2023-08-12T01:19:42;6.32;;;4.95;;
9563;SDS011;4820;50.870;4.702;2023-08-12T01:22:10;6.82;;;4.85;;
9563;SDS011;4820;50.870;4.702;2023-08-12T01:24:43;6.82;;;4.65;;
9563;SDS011;4820;50.870;4.702;2023-08-12T01:27:10;9.30;;;5.28;;
9563;SDS011;4820;50.870;4.702;2023-08-12T01:29:46;7.22;;;5.03;;
9563;SDS011;4820;50.870;4.702;2023-08-12T01:35:19;8.50;;;5.43;;
9563;SDS011;4820;50.870;4.702;2023-08-12T01:37:49;7.43;;;5.05;;
9563;SDS011;4820;50.870;4.702;2023-08-12T01:40:16;7.88;;;5.47;;
9563;SDS011;4820;50.870;4.702;2023-08-12T01:42:43;6.82;;;4.97;;
9563;SDS011;4820;50.870;4.702;2023-08-12T01:45:10;7.50;;;5.35;;
9563;SDS011;4820;50.870;4.702;2023-08-12T01:47:36;7.10;;;5.30;;
9563;SDS011;4820;50.870;4.702;2023-08-12T01:50:02;7.03;;;5.22;;
9563;SDS011;4820;50.870;4.702;2023-08-12T01:52:28;8.15;;;5.30;;
9563;SDS011;4820;50.870;4.702;2023-08-12T01:54:54;6.63;;;5.13;;
9563;SDS011;4820;50.870;4.702;2023-08-12T01:57:19;7.35;;;5.30;;
9563;SDS011;4820;50.870;4.702;2023-08-12T01:59:45;9.25;;;5.35;;
9563;SDS011;4820;50.870;4.702;2023-08-12T02:02:11;7.30;;;5.00;;
9563;SDS011;4820;50.870;4.702;2023-08-12T02:04:38;5.80;;;4.57;;
9563;SDS011;4820;50.870;4.702;2023-08-12T02:07:05;7.13;;;5.22;;
9563;SDS011;4820;50.870;4.702;2023-08-12T02:09:30;6.80;;;5.22;;
9563;SDS011;4820;50.870;4.702;2023-08-12T02:11:56;6.88;;;5.13;;
9563;SDS011;4820;50.870;4.702;2023-08-12T02:14:23;6.90;;;5.20;;
9563;SDS011;4820;50.870;4.702;2023-08-12T02:16:49;6.95;;;5.18;;
9563;SDS011;4820;50.870;4.702;2023-08-12T02:19:14;6.15;;;5.10;;
9563;SDS011;4820;50.870;4.702;2023-08-12T02:21:41;8.38;;;6.55;;
9563;SDS011;4820;50.870;4.702;2023-08-12T02:24:07;8.82;;;5.72;;
9563;SDS011;4820;50.870;4.702;2023-08-12T02:26:33;10.00;;;6.20;;
9563;SDS011;4820;50.870;4.702;2023-08-12T02:28:59;10.52;;;6.03;;
9563;SDS011;4820;50.870;4.702;2023-08-12T02:31:25;7.13;;;5.78;;
9563;SDS011;4820;50.870;4.702;2023-08-12T02:33:50;7.65;;;5.40;;
9563;SDS011;4820;50.870;4.702;2023-08-12T02:36:16;8.88;;;5.57;;
9563;SDS011;4820;50.870;4.702;2023-08-12T02:38:42;7.57;;;5.43;;
9563;SDS011;4820;50.870;4.702;2023-08-12T02:41:09;6.85;;;4.78;;
9563;SDS011;4820;50.870;4.702;2023-08-12T02:43:35;6.28;;;5.13;;
9563;SDS011;4820;50.870;4.702;2023-08-12T02:46:00;8.02;;;5.50;;
9563;SDS011;4820;50.870;4.702;2023-08-12T02:48:26;7.82;;;5.53;;
9563;SDS011;4820;50.870;4.702;2023-08-12T02:50:52;7.47;;;4.63;;
9563;SDS011;4820;50.870;4.702;2023-08-12T02:53:17;6.43;;;5.65;;
9563;SDS011;4820;50.870;4.702;2023-08-12T02:55:46;7.45;;;5.30;;
9563;SDS011;4820;50.870;4.702;2023-08-12T02:58:12;8.07;;;5.25;;
9563;SDS011;4820;50.870;4.702;2023-08-12T03:00:41;6.43;;;5.10;;
9563;SDS011;4820;50.870;4.702;2023-08-12T03:03:10;6.65;;;5.30;;
9563;SDS011;4820;50.870;4.702;2023-08-12T03:05:36;6.82;;;5.38;;
9563;SDS011;4820;50.870;4.702;2023-08-12T03:08:04;7.35;;;5.15;;
9563;SDS011;4820;50.870;4.702;2023-08-12T03:10:30;7.28;;;5.35;;
9563;SDS011;4820;50.870;4.702;2023-08-12T03:12:58;8.63;;;5.60;;
9563;SDS011;4820;50.870;4.702;2023-08-12T03:15:23;6.53;;;5.28;;
9563;SDS011;4820;50.870;4.702;2023-08-12T03:17:49;6.82;;;5.47;;
9563;SDS011;4820;50.870;4.702;2023-08-12T03:20:15;9.55;;;5.53;;
9563;SDS011;4820;50.870;4.702;2023-08-12T03:22:41;6.72;;;5.43;;
9563;SDS011;4820;50.870;4.702;2023-08-12T03:25:06;6.38;;;5.00;;
9563;SDS011;4820;50.870;4.702;2023-08-12T03:27:33;6.65;;;5.82;;
9563;SDS011;4820;50.870;4.702;2023-08-12T03:29:58;6.20;;;5.40;;
9563;SDS011;4820;50.870;4.702;2023-08-12T03:32:24;8.85;;;5.70;;
9563;SDS011;4820;50.870;4.702;2023-08-12T03:34:54;8.02;;;5.70;;
9563;SDS011;4820;50.870;4.702;2023-08-12T03:37:19;8.18;;;5.55;;
9563;SDS011;4820;50.870;4.702;2023-08-12T03:39:45;8.25;;;5.90;;
9563;SDS011;4820;50.870;4.702;2023-08-12T03:42:11;8.32;;;6.32;;
9563;SDS011;4820;50.870;4.702;2023-08-12T03:44:37;8.75;;;6.38;;
9563;SDS011;4820;50.870;4.702;2023-08-12T03:47:02;8.82;;;5.93;;
9563;SDS011;4820;50.870;4.702;2023-08-12T03:49:28;7.70;;;6.10;;
9563;SDS011;4820;50.870;4.702;2023-08-12T03:51:54;9.32;;;6.38;;
9563;SDS011;4820;50.870;4.702;2023-08-12T03:54:20;8.98;;;6.80;;
9563;SDS011;4820;50.870;4.702;2023-08-12T03:56:45;8.38;;;6.70;;
9563;SDS011;4820;50.870;4.702;2023-08-12T03:59:11;7.60;;;6.43;;
9563;SDS011;4820;50.870;4.702;2023-08-12T04:01:38;10.73;;;6.63;;
9563;SDS011;4820;50.870;4.702;2023-08-12T04:04:04;10.68;;;6.63;;
9563;SDS011;4820;50.870;4.702;2023-08-12T04:06:30;9.77;;;6.88;;
9563;SDS011;4820;50.870;4.702;2023-08-12T04:08:55;8.93;;;6.45;;
9563;SDS011;4820;50.870;4.702;2023-08-12T04:11:22;7.03;;;6.32;;
9563;SDS011;4820;50.870;4.702;2023-08-12T04:13:48;9.95;;;6.90;;
9563;SDS011;4820;50.870;4.702;2023-08-12T04:16:15;6.95;;;5.88;;
9563;SDS011;4820;50.870;4.702;2023-08-12T04:18:41;10.25;;;6.90;;
9563;SDS011;4820;50.870;4.702;2023-08-12T04:21:07;7.35;;;6.57;;
9563;SDS011;4820;50.870;4.702;2023-08-12T04:23:33;9.07;;;6.72;;
9563;SDS011;4820;50.870;4.702;2023-08-12T04:25:59;7.05;;;6.13;;
9563;SDS011;4820;50.870;4.702;2023-08-12T04:28:24;7.53;;;6.15;;
9563;SDS011;4820;50.870;4.702;2023-08-12T04:30:50;9.10;;;6.88;;
9563;SDS011;4820;50.870;4.702;2023-08-12T04:33:17;8.77;;;7.40;;
9563;SDS011;4820;50.870;4.702;2023-08-12T04:35:45;7.63;;;6.82;;
9563;SDS011;4820;50.870;4.702;2023-08-12T04:38:10;8.10;;;6.65;;
9563;SDS011;4820;50.870;4.702;2023-08-12T04:40:39;7.47;;;6.57;;
9563;SDS011;4820;50.870;4.702;2023-08-12T04:43:06;8.75;;;6.63;;
9563;SDS011;4820;50.870;4.702;2023-08-12T04:45:32;7.78;;;7.03;;
9563;SDS011;4820;50.870;4.702;2023-08-12T04:47:58;7.45;;;6.75;;
9563;SDS011;4820;50.870;4.702;2023-08-12T04:50:24;9.27;;;7.03;;
9563;SDS011;4820;50.870;4.702;2023-08-12T04:52:50;7.03;;;6.43;;
9563;SDS011;4820;50.870;4.702;2023-08-12T04:55:17;8.50;;;7.30;;
9563;SDS011;4820;50.870;4.702;2023-08-12T04:57:43;7.97;;;7.22;;
9563;SDS011;4820;50.870;4.702;2023-08-12T05:00:09;8.65;;;7.65;;
9563;SDS011;4820;50.870;4.702;2023-08-12T05:02:35;8.13;;;7.07;;
9563;SDS011;4820;50.870;4.702;2023-08-12T05:05:02;8.10;;;7.30;;
9563;SDS011;4820;50.870;4.702;2023-08-12T05:07:28;10.27;;;7.32;;
9563;SDS011;4820;50.870;4.702;2023-08-12T05:09:53;11.98;;;7.72;;
9563;SDS011;4820;50.870;4.702;2023-08-12T05:12:19;8.93;;;7.75;;
9563;SDS011;4820;50.870;4.702;2023-08-12T05:14:45;8.55;;;7.78;;
9563;SDS011;4820;50.870;4.702;2023-08-12T05:17:10;8.48;;;7.60;;
9563;SDS011;4820;50.870;4.702;2023-08-12T05:19:36;8.40;;;7.60;;
9563;SDS011;4820;50.870;4.702;2023-08-12T05:22:02;8.30;;;7.50;;
9563;SDS011;4820;50.870;4.702;2023-08-12T05:24:27;7.60;;;6.75;;
9563;SDS011;4820;50.870;4.702;2023-08-12T05:26:53;7.95;;;6.80;;
9563;SDS011;4820;50.870;4.702;2023-08-12T05:29:19;6.93;;;6.32;;
9563;SDS011;4820;50.870;4.702;2023-08-12T05:31:44;6.85;;;6.05;;
9563;SDS011;4820;50.870;4.702;2023-08-12T05:34:10;6.47;;;5.88;;
9563;SDS011;4820;50.870;4.702;2023-08-12T05:36:36;8.27;;;5.72;;
9563;SDS011;4820;50.870;4.702;2023-08-12T05:39:02;5.72;;;4.78;;
9563;SDS011;4820;50.870;4.702;2023-08-12T05:41:28;6.55;;;5.68;;
9563;SDS011;4820;50.870;4.702;2023-08-12T05:43:54;6.97;;;5.18;;
9563;SDS011;4820;50.870;4.702;2023-08-12T05:46:20;6.72;;;5.10;;
9563;SDS011;4820;50.870;4.702;2023-08-12T05:48:46;6.80;;;4.57;;
9563;SDS011;4820;50.870;4.702;2023-08-12T05:51:11;6.80;;;4.22;;
9563;SDS011;4820;50.870;4.702;2023-08-12T05:53:37;5.68;;;4.50;;
9563;SDS011;4820;50.870;4.702;2023-08-12T05:56:04;4.20;;;3.80;;
9563;SDS011;4820;50.870;4.702;2023-08-12T05:58:30;4.63;;;3.72;;
9563;SDS011;4820;50.870;4.702;2023-08-12T06:00:55;5.30;;;3.75;;
9563;SDS011;4820;50.870;4.702;2023-08-12T06:03:21;4.53;;;3.65;;
9563;SDS011;4820;50.870;4.702;2023-08-12T06:05:47;3.72;;;3.42;;
9563;SDS011;4820;50.870;4.702;2023-08-12T06:08:13;3.83;;;3.35;;
9563;SDS011;4820;50.870;4.702;2023-08-12T06:10:39;3.50;;;3.10;;
9563;SDS011;4820;50.870;4.702;2023-08-12T06:13:06;5.07;;;3.03;;
9563;SDS011;4820;50.870;4.702;2023-08-12T06:15:32;3.35;;;3.00;;
9563;SDS011;4820;50.870;4.702;2023-08-12T06:17:59;5.70;;;3.17;;
9563;SDS011;4820;50.870;4.702;2023-08-12T06:20:25;3.47;;;3.10;;
9563;SDS011;4820;50.870;4.702;2023-08-12T06:22:51;5.07;;;2.88;;
9563;SDS011;4820;50.870;4.702;2023-08-12T06:25:17;2.95;;;2.70;;
9563;SDS011;4820;50.870;4.702;2023-08-12T06:27:44;3.15;;;2.85;;
9563;SDS011;4820;50.870;4.702;2023-08-12T06:30:10;2.70;;;2.50;;
9563;SDS011;4820;50.870;4.702;2023-08-12T06:32:37;3.17;;;2.72;;
9563;SDS011;4820;50.870;4.702;2023-08-12T06:35:03;2.33;;;2.13;;
9563;SDS011;4820;50.870;4.702;2023-08-12T06:37:29;2.65;;;2.40;;
9563;SDS011;4820;50.870;4.702;2023-08-12T06:39:55;2.95;;;2.30;;
9563;SDS011;4820;50.870;4.702;2023-08-12T06:42:21;3.00;;;2.00;;
9563;SDS011;4820;50.870;4.702;2023-08-12T06:44:53;1.90;;;1.70;;
9563;SDS011;4820;50.870;4.702;2023-08-12T06:47:20;1.65;;;1.42;;
9563;SDS011;4820;50.870;4.702;2023-08-12T06:49:46;2.10;;;1.58;;
9563;SDS011;4820;50.870;4.702;2023-08-12T06:52:12;2.42;;;1.70;;
9563;SDS011;4820;50.870;4.702;2023-08-12T06:54:37;1.92;;;1.40;;
9563;SDS011;4820;50.870;4.702;2023-08-12T06:57:03;1.65;;;1.40;;
9563;SDS011;4820;50.870;4.702;2023-08-12T06:59:29;1.45;;;1.23;;
9563;SDS011;4820;50.870;4.702;2023-08-12T07:01:55;1.30;;;1.20;;
9563;SDS011;4820;50.870;4.702;2023-08-12T07:04:20;1.42;;;1.33;;
9563;SDS011;4820;50.870;4.702;2023-08-12T07:06:46;2.65;;;1.27;;
9563;SDS011;4820;50.870;4.702;2023-08-12T07:09:12;2.33;;;1.42;;
9563;SDS011;4820;50.870;4.702;2023-08-12T07:11:38;1.75;;;1.20;;
9563;SDS011;4820;50.870;4.702;2023-08-12T07:14:04;2.42;;;1.23;;
9563;SDS011;4820;50.870;4.702;2023-08-12T07:16:30;1.70;;;1.10;;
9563;SDS011;4820;50.870;4.702;2023-08-12T07:18:55;2.88;;;1.25;;
9563;SDS011;4820;50.870;4.702;2023-08-12T07:21:21;1.13;;;1.02;;
9563;SDS011;4820;50.870;4.702;2023-08-12T07:23:47;1.20;;;1.10;;
9563;SDS011;4820;50.870;4.702;2023-08-12T07:26:13;1.55;;;1.17;;
9563;SDS011;4820;50.870;4.702;2023-08-12T07:28:39;2.42;;;1.15;;
9563;SDS011;4820;50.870;4.702;2023-08-12T07:31:04;1.50;;;1.00;;
9563;SDS011;4820;50.870;4.702;2023-08-12T07:33:30;2.33;;;1.02;;
9563;SDS011;4820;50.870;4.702;2023-08-12T07:35:57;1.33;;;1.10;;
9563;SDS011;4820;50.870;4.702;2023-08-12T07:38:22;1.65;;;1.00;;
9563;SDS011;4820;50.870;4.702;2023-08-12T07:40:48;2.42;;;1.20;;
9563;SDS011;4820;50.870;4.702;2023-08-12T07:43:15;1.10;;;1.00;;
9563;SDS011;4820;50.870;4.702;2023-08-12T07:45:40;1.25;;;0.90;;
9563;SDS011;4820;50.870;4.702;2023-08-12T07:48:06;1.10;;;1.00;;
9563;SDS011;4820;50.870;4.702;2023-08-12T07:50:32;1.77;;;0.98;;
9563;SDS011;4820;50.870;4.702;2023-08-12T07:52:57;1.80;;;0.95;;
9563;SDS011;4820;50.870;4.702;2023-08-12T07:55:23;3.00;;;1.10;;
9563;SDS011;4820;50.870;4.702;2023-08-12T07:57:50;1.60;;;1.10;;
9563;SDS011;4820;50.870;4.702;2023-08-12T08:00:15;2.92;;;1.10;;
9563;SDS011;4820;50.870;4.702;2023-08-12T08:02:41;1.70;;;1.10;;
9563;SDS011;4820;50.870;4.702;2023-08-12T08:05:07;3.65;;;1.30;;
9563;SDS011;4820;50.870;4.702;2023-08-12T08:07:33;2.08;;;1.88;;
9563;SDS011;4820;50.870;4.702;2023-08-12T08:09:59;3.30;;;3.00;;
9563;SDS011;4820;50.870;4.702;2023-08-12T08:12:24;4.32;;;3.70;;
9563;SDS011;4820;50.870;4.702;2023-08-12T08:14:51;4.57;;;4.18;;
9563;SDS011;4820;50.870;4.702;2023-08-12T08:17:17;5.72;;;4.45;;
9563;SDS011;4820;50.870;4.702;2023-08-12T08:19:42;4.85;;;4.38;;
9563;SDS011;4820;50.870;4.702;2023-08-12T08:22:10;5.20;;;4.70;;
9563;SDS011;4820;50.870;4.702;2023-08-12T08:24:37;4.18;;;3.78;;
9563;SDS011;4820;50.870;4.702;2023-08-12T08:27:03;3.58;;;3.28;;
9563;SDS011;4820;50.870;4.702;2023-08-12T08:29:29;4.45;;;3.17;;
9563;SDS011;4820;50.870;4.702;2023-08-12T08:31:55;4.38;;;3.00;;
9563;SDS011;4820;50.870;4.702;2023-08-12T08:34:21;3.42;;;3.10;;
9563;SDS011;4820;50.870;4.702;2023-08-12T08:36:46;3.72;;;2.95;;
9563;SDS011;4820;50.870;4.702;2023-08-12T08:39:13;4.25;;;3.10;;
9563;SDS011;4820;50.870;4.702;2023-08-12T08:41:39;5.30;;;4.18;;
9563;SDS011;4820;50.870;4.702;2023-08-12T08:44:06;4.22;;;3.83;;
9563;SDS011;4820;50.870;4.702;2023-08-12T08:46:34;4.00;;;3.70;;
9563;SDS011;4820;50.870;4.702;2023-08-12T08:49:00;4.53;;;4.13;;
9563;SDS011;4820;50.870;4.702;2023-08-12T08:51:27;4.18;;;3.88;;
9563;SDS011;4820;50.870;4.702;2023-08-12T08:54:01;4.22;;;3.60;;
9563;SDS011;4820;50.870;4.702;2023-08-12T08:56:29;4.47;;;4.07;;
9563;SDS011;4820;50.870;4.702;2023-08-12T08:58:56;4.55;;;4.15;;
9563;SDS011;4820;50.870;4.702;2023-08-12T09:01:22;5.57;;;4.18;;
9563;SDS011;4820;50.870;4.702;2023-08-12T09:03:50;5.30;;;3.90;;
9563;SDS011;4820;50.870;4.702;2023-08-12T09:06:23;4.30;;;4.00;;
9563;SDS011;4820;50.870;4.702;2023-08-12T09:08:51;4.35;;;3.95;;
9563;SDS011;4820;50.870;4.702;2023-08-12T09:11:18;4.28;;;3.50;;
9563;SDS011;4820;50.870;4.702;2023-08-12T09:13:44;4.30;;;4.00;;
9563;SDS011;4820;50.870;4.702;2023-08-12T09:16:10;4.15;;;3.85;;
9563;SDS011;4820;50.870;4.702;2023-08-12T09:18:37;4.60;;;4.20;;
9563;SDS011;4820;50.870;4.702;2023-08-12T09:21:03;5.00;;;4.18;;
9563;SDS011;4820;50.870;4.702;2023-08-12T09:23:38;4.00;;;3.70;;
9563;SDS011;4820;50.870;4.702;2023-08-12T09:26:13;4.40;;;4.00;;
9563;SDS011;4820;50.870;4.702;2023-08-12T09:28:41;4.35;;;3.95;;
9563;SDS011;4820;50.870;4.702;2023-08-12T09:31:07;4.35;;;4.00;;
9563;SDS011;4820;50.870;4.702;2023-08-12T09:33:37;3.92;;;3.63;;
9563;SDS011;4820;50.870;4.702;2023-08-12T09:36:04;3.78;;;3.47;;
9563;SDS011;4820;50.870;4.702;2023-08-12T09:38:30;3.78;;;3.30;;
9563;SDS011;4820;50.870;4.702;2023-08-12T09:40:56;3.92;;;3.53;;
9563;SDS011;4820;50.870;4.702;2023-08-12T09:43:27;4.32;;;3.80;;
9563;SDS011;4820;50.870;4.702;2023-08-12T09:45:55;6.00;;;3.83;;
9563;SDS011;4820;50.870;4.702;2023-08-12T09:48:22;4.22;;;3.55;;
9563;SDS011;4820;50.870;4.702;2023-08-12T09:50:48;3.42;;;3.13;;
9563;SDS011;4820;50.870;4.702;2023-08-12T09:53:16;2.92;;;2.30;;
9563;SDS011;4820;50.870;4.702;2023-08-12T09:55:42;2.40;;;2.20;;
9563;SDS011;4820;50.870;4.702;2023-08-12T09:58:09;4.45;;;2.42;;
9563;SDS011;4820;50.870;4.702;2023-08-12T10:00:36;2.90;;;2.50;;
9563;SDS011;4820;50.870;4.702;2023-08-12T10:03:02;3.00;;;2.30;;
9563;SDS011;4820;50.870;4.702;2023-08-12T10:05:31;3.83;;;2.60;;
9563;SDS011;4820;50.870;4.702;2023-08-12T10:07:57;4.22;;;2.35;;
9563;SDS011;4820;50.870;4.702;2023-08-12T10:10:26;3.25;;;2.65;;
9563;SDS011;4820;50.870;4.702;2023-08-12T10:12:53;3.50;;;2.47;;
9563;SDS011;4820;50.870;4.702;2023-08-12T10:15:20;4.68;;;2.60;;
9563;SDS011;4820;50.870;4.702;2023-08-12T10:17:47;4.15;;;2.97;;
9563;SDS011;4820;50.870;4.702;2023-08-12T10:20:20;3.30;;;2.67;;
9563;SDS011;4820;50.870;4.702;2023-08-12T10:22:50;4.88;;;2.92;;
9563;SDS011;4820;50.870;4.702;2023-08-12T10:25:17;3.80;;;2.60;;
9563;SDS011;4820;50.870;4.702;2023-08-12T10:27:44;4.55;;;2.58;;
9563;SDS011;4820;50.870;4.702;2023-08-12T10:30:10;4.38;;;2.03;;
9563;SDS011;4820;50.870;4.702;2023-08-12T10:32:38;3.28;;;2.08;;
9563;SDS011;4820;50.870;4.702;2023-08-12T10:35:04;3.65;;;2.13;;
9563;SDS011;4820;50.870;4.702;2023-08-12T10:37:32;4.07;;;2.17;;
9563;SDS011;4820;50.870;4.702;2023-08-12T10:39:58;4.18;;;1.90;;
9563;SDS011;4820;50.870;4.702;2023-08-12T10:42:40;3.53;;;2.00;;
9563;SDS011;4820;50.870;4.702;2023-08-12T10:45:11;4.65;;;1.92;;
9563;SDS011;4820;50.870;4.702;2023-08-12T10:47:41;3.45;;;1.83;;
9563;SDS011;4820;50.870;4.702;2023-08-12T10:50:43;3.58;;;1.75;;
9563;SDS011;4820;50.870;4.702;2023-08-12T10:56:05;3.35;;;2.42;;
9563;SDS011;4820;50.870;4.702;2023-08-12T11:01:18;3.30;;;1.90;;
9563;SDS011;4820;50.870;4.702;2023-08-12T11:03:44;3.58;;;1.95;;
9563;SDS011;4820;50.870;4.702;2023-08-12T11:06:12;4.03;;;1.80;;
9563;SDS011;4820;50.870;4.702;2023-08-12T11:08:47;2.97;;;1.60;;
9563;SDS011;4820;50.870;4.702;2023-08-12T11:11:24;3.00;;;1.70;;
9563;SDS011;4820;50.870;4.702;2023-08-12T11:13:57;3.28;;;1.77;;
9563;SDS011;4820;50.870;4.702;2023-08-12T11:16:36;3.83;;;1.75;;
9563;SDS011;4820;50.870;4.702;2023-08-12T11:19:03;3.60;;;1.80;;
9563;SDS011;4820;50.870;4.702;2023-08-12T11:21:29;5.53;;;1.85;;
9563;SDS011;4820;50.870;4.702;2023-08-12T11:23:55;4.72;;;1.85;;
9563;SDS011;4820;50.870;4.702;2023-08-12T11:26:24;5.65;;;2.30;;
9563;SDS011;4820;50.870;4.702;2023-08-12T11:28:49;3.80;;;2.15;;
9563;SDS011;4820;50.870;4.702;2023-08-12T11:31:16;3.42;;;2.00;;
9563;SDS011;4820;50.870;4.702;2023-08-12T11:33:43;3.47;;;1.73;;
9563;SDS011;4820;50.870;4.702;2023-08-12T11:36:09;3.47;;;2.00;;
9563;SDS011;4820;50.870;4.702;2023-08-12T11:38:35;4.53;;;2.08;;
9563;SDS011;4820;50.870;4.702;2023-08-12T11:41:02;3.42;;;1.90;;
9563;SDS011;4820;50.870;4.702;2023-08-12T11:43:28;5.22;;;2.17;;
9563;SDS011;4820;50.870;4.702;2023-08-12T11:45:55;3.97;;;2.13;;
9563;SDS011;4820;50.870;4.702;2023-08-12T11:48:21;5.40;;;2.40;;
9563;SDS011;4820;50.870;4.702;2023-08-12T11:50:48;3.88;;;1.98;;
9563;SDS011;4820;50.870;4.702;2023-08-12T11:53:14;4.82;;;2.30;;
9563;SDS011;4820;50.870;4.702;2023-08-12T11:55:40;4.03;;;2.10;;
9563;SDS011;4820;50.870;4.702;2023-08-12T11:58:06;5.63;;;2.25;;
9563;SDS011;4820;50.870;4.702;2023-08-12T12:00:32;5.03;;;2.30;;
9563;SDS011;4820;50.870;4.702;2023-08-12T12:02:58;3.63;;;2.30;;
9563;SDS011;4820;50.870;4.702;2023-08-12T12:05:28;3.50;;;2.17;;
9563;SDS011;4820;50.870;4.702;2023-08-12T12:07:58;5.95;;;1.98;;
9563;SDS011;4820;50.870;4.702;2023-08-12T12:10:31;5.20;;;1.90;;
9563;SDS011;4820;50.870;4.702;2023-08-12T12:12:58;5.05;;;1.95;;
9563;SDS011;4820;50.870;4.702;2023-08-12T12:15:25;3.58;;;1.80;;
9563;SDS011;4820;50.870;4.702;2023-08-12T12:17:51;3.95;;;2.00;;
9563;SDS011;4820;50.870;4.702;2023-08-12T12:20:17;6.03;;;2.10;;
9563;SDS011;4820;50.870;4.702;2023-08-12T12:22:44;3.83;;;1.92;;
9563;SDS011;4820;50.870;4.702;2023-08-12T12:25:11;3.78;;;1.80;;
9563;SDS011;4820;50.870;4.702;2023-08-12T12:27:39;5.28;;;1.90;;
9563;SDS011;4820;50.870;4.702;2023-08-12T12:30:09;3.42;;;1.80;;
9563;SDS011;4820;50.870;4.702;2023-08-12T12:32:36;3.78;;;1.80;;
9563;SDS011;4820;50.870;4.702;2023-08-12T12:35:03;3.97;;;2.10;;
9563;SDS011;4820;50.870;4.702;2023-08-12T12:37:29;4.30;;;2.08;;
9563;SDS011;4820;50.870;4.702;2023-08-12T12:39:55;4.18;;;1.90;;
9563;SDS011;4820;50.870;4.702;2023-08-12T12:42:21;3.60;;;2.13;;
9563;SDS011;4820;50.870;4.702;2023-08-12T12:44:46;4.10;;;2.10;;
9563;SDS011;4820;50.870;4.702;2023-08-12T12:47:12;4.20;;;2.00;;
9563;SDS011;4820;50.870;4.702;2023-08-12T12:49:38;5.13;;;2.03;;
9563;SDS011;4820;50.870;4.702;2023-08-12T12:52:07;4.10;;;1.90;;
9563;SDS011;4820;50.870;4.702;2023-08-12T12:54:33;3.85;;;1.80;;
9563;SDS011;4820;50.870;4.702;2023-08-12T12:56:58;4.53;;;1.73;;
9563;SDS011;4820;50.870;4.702;2023-08-12T12:59:26;7.22;;;2.10;;
9563;SDS011;4820;50.870;4.702;2023-08-12T13:01:52;3.78;;;2.10;;
9563;SDS011;4820;50.870;4.702;2023-08-12T13:04:17;3.85;;;1.98;;
9563;SDS011;4820;50.870;4.702;2023-08-12T13:06:43;3.15;;;1.98;;
9563;SDS011;4820;50.870;4.702;2023-08-12T13:09:09;4.35;;;2.38;;
9563;SDS011;4820;50.870;4.702;2023-08-12T13:11:35;5.28;;;2.22;;
9563;SDS011;4820;50.870;4.702;2023-08-12T13:14:01;5.30;;;2.33;;
9563;SDS011;4820;50.870;4.702;2023-08-12T13:16:31;6.63;;;2.50;;
9563;SDS011;4820;50.870;4.702;2023-08-12T13:18:57;4.45;;;2.55;;
9563;SDS011;4820;50.870;4.702;2023-08-12T13:21:26;5.13;;;2.90;;
9563;SDS011;4820;50.870;4.702;2023-08-12T13:23:53;4.90;;;2.90;;
9563;SDS011;4820;50.870;4.702;2023-08-12T13:26:21;3.97;;;2.60;;
9563;SDS011;4820;50.870;4.702;2023-08-12T13:28:47;4.32;;;2.58;;
9563;SDS011;4820;50.870;4.702;2023-08-12T13:31:13;4.13;;;2.60;;
9563;SDS011;4820;50.870;4.702;2023-08-12T13:33:39;3.88;;;2.47;;
9563;SDS011;4820;50.870;4.702;2023-08-12T13:36:05;4.38;;;2.47;;
9563;SDS011;4820;50.870;4.702;2023-08-12T13:38:30;3.17;;;2.42;;
9563;SDS011;4820;50.870;4.702;2023-08-12T13:40:56;3.55;;;2.17;;
9563;SDS011;4820;50.870;4.702;2023-08-12T13:43:22;5.25;;;2.30;;
9563;SDS011;4820;50.870;4.702;2023-08-12T13:45:47;4.32;;;2.40;;
9563;SDS011;4820;50.870;4.702;2023-08-12T13:48:13;4.13;;;2.00;;
9563;SDS011;4820;50.870;4.702;2023-08-12T13:50:39;3.38;;;2.35;;
9563;SDS011;4820;50.870;4.702;2023-08-12T13:53:04;3.35;;;2.03;;
9563;SDS011;4820;50.870;4.702;2023-08-12T13:55:31;3.17;;;2.15;;
9563;SDS011;4820;50.870;4.702;2023-08-12T13:57:56;4.35;;;2.20;;
9563;SDS011;4820;50.870;4.702;2023-08-12T14:00:22;3.28;;;1.90;;
9563;SDS011;4820;50.870;4.702;2023-08-12T14:02:49;3.70;;;2.00;;
9563;SDS011;4820;50.870;4.702;2023-08-12T14:05:15;2.88;;;1.77;;
9563;SDS011;4820;50.870;4.702;2023-08-12T14:07:41;3.58;;;1.92;;
9563;SDS011;4820;50.870;4.702;2023-08-12T14:10:07;3.92;;;1.70;;
9563;SDS011;4820;50.870;4.702;2023-08-12T14:12:33;4.22;;;2.10;;
9563;SDS011;4820;50.870;4.702;2023-08-12T14:14:59;3.20;;;1.83;;
9563;SDS011;4820;50.870;4.702;2023-08-12T14:17:25;3.03;;;1.90;;
9563;SDS011;4820;50.870;4.702;2023-08-12T14:19:51;4.35;;;2.00;;
9563;SDS011;4820;50.870;4.702;2023-08-12T14:22:18;3.22;;;2.00;;
9563;SDS011;4820;50.870;4.702;2023-08-12T14:24:44;3.85;;;1.70;;
9563;SDS011;4820;50.870;4.702;2023-08-12T14:27:10;3.65;;;2.10;;
9563;SDS011;4820;50.870;4.702;2023-08-12T14:29:37;4.88;;;1.90;;
9563;SDS011;4820;50.870;4.702;2023-08-12T14:32:03;3.72;;;2.03;;
9563;SDS011;4820;50.870;4.702;2023-08-12T14:34:29;2.15;;;1.80;;
9563;SDS011;4820;50.870;4.702;2023-08-12T14:36:55;2.22;;;1.70;;
9563;SDS011;4820;50.870;4.702;2023-08-12T14:39:21;2.60;;;1.73;;
9563;SDS011;4820;50.870;4.702;2023-08-12T14:41:47;3.83;;;2.10;;
9563;SDS011;4820;50.870;4.702;2023-08-12T14:44:13;5.57;;;2.10;;
9563;SDS011;4820;50.870;4.702;2023-08-12T14:46:39;3.65;;;1.88;;
9563;SDS011;4820;50.870;4.702;2023-08-12T14:49:05;4.63;;;2.30;;
9563;SDS011;4820;50.870;4.702;2023-08-12T14:51:31;5.28;;;2.03;;
9563;SDS011;4820;50.870;4.702;2023-08-12T14:53:56;4.55;;;1.88;;
9563;SDS011;4820;50.870;4.702;2023-08-12T14:56:22;5.43;;;2.03;;
9563;SDS011;4820;50.870;4.702;2023-08-12T14:58:49;2.78;;;2.13;;
9563;SDS011;4820;50.870;4.702;2023-08-12T15:01:15;3.00;;;1.73;;
9563;SDS011;4820;50.870;4.702;2023-08-12T15:03:41;5.13;;;1.85;;
9563;SDS011;4820;50.870;4.702;2023-08-12T15:06:07;3.75;;;2.10;;
9563;SDS011;4820;50.870;4.702;2023-08-12T15:08:32;4.80;;;2.10;;
9563;SDS011;4820;50.870;4.702;2023-08-12T15:10:58;4.88;;;2.10;;
9563;SDS011;4820;50.870;4.702;2023-08-12T15:13:24;2.65;;;1.75;;
9563;SDS011;4820;50.870;4.702;2023-08-12T15:15:51;3.40;;;2.00;;
9563;SDS011;4820;50.870;4.702;2023-08-12T15:18:17;3.63;;;1.95;;
9563;SDS011;4820;50.870;4.702;2023-08-12T15:20:43;5.68;;;2.13;;
9563;SDS011;4820;50.870;4.702;2023-08-12T15:23:09;5.28;;;1.90;;